sensor_id;sensor_type;location;lat;lon;timestamp;P1;durP1;ratioP1;P2;durP2;ratioP2
51499;SDS011;39101;53.478;6.158;2022-12-18T00:02:16;113.00;;;43.53;;
51499;SDS011;39101;53.478;6.158;2022-12-18T00:04:41;108.93;;;43.43;;
51499;SDS011;39101;53.478;6.158;2022-12-18T00:07:07;109.43;;;40.63;;
51499;SDS011;39101;53.478;6.158;2022-12-18T00:09:33;105.93;;;41.50;;
51499;SDS011;39101;53.478;6.158;2022-12-18T00:11:58;120.90;;;43.80;;
51499;SDS011;39101;53.478;6.158;2022-12-18T00:14:24;108.27;;;42.63;;
51499;SDS011;39101;53.478;6.158;2022-12-18T00:16:50;110.73;;;40.90;;
51499;SDS011;39101;53.478;6.158;2022-12-18T00:19:16;111.77;;;41.57;;
51499;SDS011;39101;53.478;6.158;2022-12-18T00:21:42;111.27;;;44.67;;
51499;SDS011;39101;53.478;6.158;2022-12-18T00:24:09;110.80;;;44.33;;
51499;SDS011;39101;53.478;6.158;2022-12-18T00:26:36;99.17;;;42.30;;
51499;SDS011;39101;53.478;6.158;2022-12-18T00:29:05;116.67;;;42.93;;
51499;SDS011;39101;53.478;6.158;2022-12-18T00:31:40;103.90;;;40.13;;
51499;SDS011;39101;53.478;6.158;2022-12-18T00:34:06;105.40;;;40.40;;
51499;SDS011;39101;53.478;6.158;2022-12-18T00:36:36;100.05;;;41.50;;
51499;SDS011;39101;53.478;6.158;2022-12-18T00:39:03;113.83;;;41.30;;
51499;SDS011;39101;53.478;6.158;2022-12-18T00:41:30;102.63;;;38.73;;
51499;SDS011;39101;53.478;6.158;2022-12-18T00:44:14;99.60;;;38.13;;
51499;SDS011;39101;53.478;6.158;2022-12-18T00:46:42;117.40;;;41.53;;
51499;SDS011;39101;53.478;6.158;2022-12-18T00:49:08;110.83;;;40.17;;
51499;SDS011;39101;53.478;6.158;2022-12-18T00:51:34;120.17;;;41.00;;
51499;SDS011;39101;53.478;6.158;2022-12-18T00:54:00;114.73;;;43.00;;
51499;SDS011;39101;53.478;6.158;2022-12-18T00:56:26;120.57;;;43.87;;
51499;SDS011;39101;53.478;6.158;2022-12-18T00:58:51;112.23;;;42.03;;
51499;SDS011;39101;53.478;6.158;2022-12-18T01:01:17;112.93;;;43.27;;
51499;SDS011;39101;53.478;6.158;2022-12-18T01:03:43;108.60;;;40.30;;
51499;SDS011;39101;53.478;6.158;2022-12-18T01:06:10;120.07;;;42.43;;
51499;SDS011;39101;53.478;6.158;2022-12-18T01:08:37;110.67;;;39.90;;
51499;SDS011;39101;53.478;6.158;2022-12-18T01:11:07;113.67;;;40.77;;
51499;SDS011;39101;53.478;6.158;2022-12-18T01:13:35;120.50;;;41.40;;
51499;SDS011;39101;53.478;6.158;2022-12-18T01:16:00;109.33;;;41.20;;
51499;SDS011;39101;53.478;6.158;2022-12-18T01:18:26;112.80;;;41.03;;
51499;SDS011;39101;53.478;6.158;2022-12-18T01:20:52;121.17;;;42.80;;
51499;SDS011;39101;53.478;6.158;2022-12-18T01:23:17;110.20;;;42.40;;
51499;SDS011;39101;53.478;6.158;2022-12-18T01:25:43;116.90;;;42.97;;
51499;SDS011;39101;53.478;6.158;2022-12-18T01:28:08;137.87;;;43.53;;
51499;SDS011;39101;53.478;6.158;2022-12-18T01:30:34;111.40;;;41.17;;
51499;SDS011;39101;53.478;6.158;2022-12-18T01:33:00;114.83;;;42.93;;
51499;SDS011;39101;53.478;6.158;2022-12-18T01:35:25;124.23;;;41.33;;
51499;SDS011;39101;53.478;6.158;2022-12-18T01:37:54;110.43;;;41.37;;
51499;SDS011;39101;53.478;6.158;2022-12-18T01:40:20;122.23;;;43.53;;
51499;SDS011;39101;53.478;6.158;2022-12-18T01:42:50;132.53;;;44.80;;
51499;SDS011;39101;53.478;6.158;2022-12-18T01:45:23;131.43;;;44.10;;
51499;SDS011;39101;53.478;6.158;2022-12-18T01:47:53;121.57;;;42.03;;
51499;SDS011;39101;53.478;6.158;2022-12-18T01:50:28;113.77;;;41.47;;
51499;SDS011;39101;53.478;6.158;2022-12-18T01:53:05;134.87;;;44.73;;
51499;SDS011;39101;53.478;6.158;2022-12-18T01:55:41;122.57;;;43.80;;
51499;SDS011;39101;53.478;6.158;2022-12-18T01:58:12;117.43;;;44.07;;
51499;SDS011;39101;53.478;6.158;2022-12-18T02:00:38;112.53;;;42.43;;
51499;SDS011;39101;53.478;6.158;2022-12-18T02:03:03;119.33;;;42.90;;
51499;SDS011;39101;53.478;6.158;2022-12-18T02:13:38;119.20;;;39.87;;
51499;SDS011;39101;53.478;6.158;2022-12-18T02:16:19;111.87;;;39.20;;
51499;SDS011;39101;53.478;6.158;2022-12-18T02:18:48;107.20;;;40.67;;
51499;SDS011;39101;53.478;6.158;2022-12-18T02:29:13;123.27;;;40.07;;
51499;SDS011;39101;53.478;6.158;2022-12-18T02:31:53;112.93;;;39.23;;
51499;SDS011;39101;53.478;6.158;2022-12-18T02:34:22;114.27;;;38.77;;
51499;SDS011;39101;53.478;6.158;2022-12-18T02:36:53;103.93;;;38.00;;
51499;SDS011;39101;53.478;6.158;2022-12-18T02:39:20;115.50;;;40.27;;
51499;SDS011;39101;53.478;6.158;2022-12-18T02:41:49;114.20;;;38.35;;
51499;SDS011;39101;53.478;6.158;2022-12-18T02:44:16;109.60;;;36.10;;
51499;SDS011;39101;53.478;6.158;2022-12-18T02:46:49;122.27;;;39.93;;
51499;SDS011;39101;53.478;6.158;2022-12-18T02:57:24;119.83;;;36.00;;
51499;SDS011;39101;53.478;6.158;2022-12-18T03:00:14;123.10;;;39.53;;
51499;SDS011;39101;53.478;6.158;2022-12-18T03:05:30;106.80;;;40.97;;
51499;SDS011;39101;53.478;6.158;2022-12-18T03:08:15;130.17;;;40.47;;
51499;SDS011;39101;53.478;6.158;2022-12-18T03:10:52;105.93;;;37.50;;
51499;SDS011;39101;53.478;6.158;2022-12-18T03:13:36;113.43;;;37.83;;
51499;SDS011;39101;53.478;6.158;2022-12-18T03:16:06;103.40;;;36.07;;
51499;SDS011;39101;53.478;6.158;2022-12-18T03:18:37;118.70;;;39.83;;
51499;SDS011;39101;53.478;6.158;2022-12-18T03:21:07;117.47;;;40.63;;
51499;SDS011;39101;53.478;6.158;2022-12-18T03:23:37;102.43;;;38.20;;
51499;SDS011;39101;53.478;6.158;2022-12-18T03:26:08;101.50;;;36.97;;
51499;SDS011;39101;53.478;6.158;2022-12-18T03:28:39;115.18;;;36.25;;
51499;SDS011;39101;53.478;6.158;2022-12-18T03:31:11;105.90;;;35.00;;
51499;SDS011;39101;53.478;6.158;2022-12-18T03:36:45;97.20;;;35.70;;
51499;SDS011;39101;53.478;6.158;2022-12-18T03:39:11;106.50;;;36.53;;
51499;SDS011;39101;53.478;6.158;2022-12-18T03:41:43;106.30;;;38.73;;
51499;SDS011;39101;53.478;6.158;2022-12-18T03:47:08;108.30;;;38.13;;
51499;SDS011;39101;53.478;6.158;2022-12-18T03:50:03;96.97;;;37.83;;
51499;SDS011;39101;53.478;6.158;2022-12-18T03:55:34;115.53;;;39.80;;
51499;SDS011;39101;53.478;6.158;2022-12-18T03:58:01;122.30;;;40.10;;
51499;SDS011;39101;53.478;6.158;2022-12-18T04:00:30;104.00;;;36.30;;
51499;SDS011;39101;53.478;6.158;2022-12-18T04:02:57;111.43;;;35.17;;
51499;SDS011;39101;53.478;6.158;2022-12-18T04:05:27;114.17;;;36.30;;
51499;SDS011;39101;53.478;6.158;2022-12-18T04:07:54;107.27;;;36.40;;
51499;SDS011;39101;53.478;6.158;2022-12-18T04:10:21;117.70;;;39.73;;
51499;SDS011;39101;53.478;6.158;2022-12-18T04:12:47;102.60;;;36.90;;
51499;SDS011;39101;53.478;6.158;2022-12-18T04:15:13;112.77;;;39.43;;
51499;SDS011;39101;53.478;6.158;2022-12-18T04:17:39;107.50;;;36.40;;
51499;SDS011;39101;53.478;6.158;2022-12-18T04:20:13;98.60;;;34.93;;
51499;SDS011;39101;53.478;6.158;2022-12-18T04:22:38;115.27;;;37.47;;
51499;SDS011;39101;53.478;6.158;2022-12-18T04:25:05;101.23;;;34.43;;
51499;SDS011;39101;53.478;6.158;2022-12-18T04:27:31;111.67;;;37.17;;
51499;SDS011;39101;53.478;6.158;2022-12-18T04:29:56;111.47;;;36.60;;
51499;SDS011;39101;53.478;6.158;2022-12-18T04:32:22;118.70;;;38.13;;
51499;SDS011;39101;53.478;6.158;2022-12-18T04:34:47;104.20;;;38.73;;
51499;SDS011;39101;53.478;6.158;2022-12-18T04:37:13;116.27;;;37.17;;
51499;SDS011;39101;53.478;6.158;2022-12-18T04:39:39;105.50;;;34.03;;
51499;SDS011;39101;53.478;6.158;2022-12-18T04:42:04;105.73;;;36.43;;
51499;SDS011;39101;53.478;6.158;2022-12-18T04:44:30;125.97;;;37.67;;
51499;SDS011;39101;53.478;6.158;2022-12-18T04:46:56;114.50;;;39.10;;
51499;SDS011;39101;53.478;6.158;2022-12-18T04:49:21;103.57;;;34.03;;
51499;SDS011;39101;53.478;6.158;2022-12-18T04:51:47;105.63;;;36.83;;
51499;SDS011;39101;53.478;6.158;2022-12-18T04:54:13;113.07;;;36.83;;
51499;SDS011;39101;53.478;6.158;2022-12-18T04:56:38;108.30;;;38.90;;
51499;SDS011;39101;53.478;6.158;2022-12-18T04:59:04;98.57;;;35.57;;
51499;SDS011;39101;53.478;6.158;2022-12-18T05:01:30;108.00;;;37.10;;
51499;SDS011;39101;53.478;6.158;2022-12-18T05:03:56;106.43;;;39.03;;
51499;SDS011;39101;53.478;6.158;2022-12-18T05:06:21;104.80;;;37.53;;
51499;SDS011;39101;53.478;6.158;2022-12-18T05:08:47;107.83;;;38.70;;
51499;SDS011;39101;53.478;6.158;2022-12-18T05:11:13;116.90;;;38.67;;
51499;SDS011;39101;53.478;6.158;2022-12-18T05:13:43;118.90;;;41.15;;
51499;SDS011;39101;53.478;6.158;2022-12-18T05:16:09;107.50;;;39.43;;
51499;SDS011;39101;53.478;6.158;2022-12-18T05:18:35;108.60;;;36.23;;
51499;SDS011;39101;53.478;6.158;2022-12-18T05:21:02;101.73;;;38.53;;
51499;SDS011;39101;53.478;6.158;2022-12-18T05:23:28;101.77;;;36.90;;
51499;SDS011;39101;53.478;6.158;2022-12-18T05:25:58;113.60;;;39.47;;
51499;SDS011;39101;53.478;6.158;2022-12-18T05:28:26;101.43;;;41.00;;
51499;SDS011;39101;53.478;6.158;2022-12-18T05:30:54;106.17;;;39.70;;
51499;SDS011;39101;53.478;6.158;2022-12-18T05:33:22;99.30;;;37.03;;
51499;SDS011;39101;53.478;6.158;2022-12-18T05:35:52;106.53;;;37.67;;
51499;SDS011;39101;53.478;6.158;2022-12-18T05:38:19;101.05;;;37.17;;
51499;SDS011;39101;53.478;6.158;2022-12-18T05:40:47;88.90;;;34.73;;
51499;SDS011;39101;53.478;6.158;2022-12-18T05:43:17;105.15;;;39.05;;
51499;SDS011;39101;53.478;6.158;2022-12-18T05:45:44;96.53;;;36.87;;
51499;SDS011;39101;53.478;6.158;2022-12-18T05:48:09;95.67;;;34.80;;
51499;SDS011;39101;53.478;6.158;2022-12-18T05:50:36;90.33;;;34.00;;
51499;SDS011;39101;53.478;6.158;2022-12-18T05:53:03;80.37;;;33.30;;
51499;SDS011;39101;53.478;6.158;2022-12-18T05:55:29;88.77;;;34.90;;
51499;SDS011;39101;53.478;6.158;2022-12-18T05:57:57;80.37;;;33.33;;
51499;SDS011;39101;53.478;6.158;2022-12-18T06:00:24;82.10;;;32.13;;
51499;SDS011;39101;53.478;6.158;2022-12-18T06:02:49;89.50;;;35.30;;
51499;SDS011;39101;53.478;6.158;2022-12-18T06:05:15;84.50;;;32.63;;
51499;SDS011;39101;53.478;6.158;2022-12-18T06:07:42;81.97;;;33.63;;
51499;SDS011;39101;53.478;6.158;2022-12-18T06:10:08;83.07;;;30.70;;
51499;SDS011;39101;53.478;6.158;2022-12-18T06:12:33;90.03;;;33.53;;
51499;SDS011;39101;53.478;6.158;2022-12-18T06:14:59;74.03;;;30.57;;
51499;SDS011;39101;53.478;6.158;2022-12-18T06:17:32;83.60;;;33.83;;
51499;SDS011;39101;53.478;6.158;2022-12-18T06:19:58;80.93;;;32.10;;
51499;SDS011;39101;53.478;6.158;2022-12-18T06:22:24;70.60;;;31.67;;
51499;SDS011;39101;53.478;6.158;2022-12-18T06:24:50;77.00;;;30.70;;
51499;SDS011;39101;53.478;6.158;2022-12-18T06:27:16;78.67;;;33.77;;
51499;SDS011;39101;53.478;6.158;2022-12-18T06:29:42;77.60;;;32.17;;
51499;SDS011;39101;53.478;6.158;2022-12-18T06:32:07;77.87;;;32.60;;
51499;SDS011;39101;53.478;6.158;2022-12-18T06:34:33;82.00;;;29.73;;
51499;SDS011;39101;53.478;6.158;2022-12-18T06:36:59;76.33;;;30.07;;
51499;SDS011;39101;53.478;6.158;2022-12-18T06:39:27;78.10;;;29.47;;
51499;SDS011;39101;53.478;6.158;2022-12-18T06:41:53;76.43;;;31.63;;
51499;SDS011;39101;53.478;6.158;2022-12-18T06:44:18;72.63;;;32.37;;
51499;SDS011;39101;53.478;6.158;2022-12-18T06:46:44;75.33;;;31.87;;
51499;SDS011;39101;53.478;6.158;2022-12-18T06:49:10;74.37;;;31.80;;
51499;SDS011;39101;53.478;6.158;2022-12-18T06:51:36;69.47;;;29.40;;
51499;SDS011;39101;53.478;6.158;2022-12-18T06:54:02;68.43;;;29.13;;
51499;SDS011;39101;53.478;6.158;2022-12-18T06:56:28;61.87;;;27.33;;
51499;SDS011;39101;53.478;6.158;2022-12-18T06:58:53;68.57;;;27.33;;
51499;SDS011;39101;53.478;6.158;2022-12-18T07:01:20;66.23;;;26.90;;
51499;SDS011;39101;53.478;6.158;2022-12-18T07:03:46;68.77;;;29.03;;
51499;SDS011;39101;53.478;6.158;2022-12-18T07:06:15;69.17;;;27.50;;
51499;SDS011;39101;53.478;6.158;2022-12-18T07:08:44;68.67;;;28.37;;
51499;SDS011;39101;53.478;6.158;2022-12-18T07:11:10;68.50;;;28.73;;
51499;SDS011;39101;53.478;6.158;2022-12-18T07:13:36;66.33;;;27.97;;
51499;SDS011;39101;53.478;6.158;2022-12-18T07:16:09;70.43;;;27.40;;
51499;SDS011;39101;53.478;6.158;2022-12-18T07:18:38;69.50;;;27.47;;
51499;SDS011;39101;53.478;6.158;2022-12-18T07:21:05;64.60;;;27.73;;
51499;SDS011;39101;53.478;6.158;2022-12-18T07:23:32;58.30;;;26.53;;
51499;SDS011;39101;53.478;6.158;2022-12-18T07:26:03;60.30;;;26.40;;
51499;SDS011;39101;53.478;6.158;2022-12-18T07:28:34;57.60;;;24.20;;
51499;SDS011;39101;53.478;6.158;2022-12-18T07:31:08;60.80;;;24.97;;
51499;SDS011;39101;53.478;6.158;2022-12-18T07:33:36;60.77;;;25.63;;
51499;SDS011;39101;53.478;6.158;2022-12-18T07:36:03;66.73;;;25.30;;
51499;SDS011;39101;53.478;6.158;2022-12-18T07:38:30;59.23;;;24.60;;
51499;SDS011;39101;53.478;6.158;2022-12-18T07:41:00;55.70;;;23.67;;
51499;SDS011;39101;53.478;6.158;2022-12-18T07:43:27;59.60;;;23.80;;
51499;SDS011;39101;53.478;6.158;2022-12-18T07:45:52;49.60;;;22.50;;
51499;SDS011;39101;53.478;6.158;2022-12-18T07:48:18;59.07;;;24.63;;
51499;SDS011;39101;53.478;6.158;2022-12-18T07:50:44;51.43;;;23.43;;
51499;SDS011;39101;53.478;6.158;2022-12-18T07:53:09;65.07;;;25.10;;
51499;SDS011;39101;53.478;6.158;2022-12-18T07:55:35;59.00;;;25.27;;
51499;SDS011;39101;53.478;6.158;2022-12-18T07:58:01;60.50;;;24.50;;
51499;SDS011;39101;53.478;6.158;2022-12-18T08:00:28;52.70;;;24.20;;
51499;SDS011;39101;53.478;6.158;2022-12-18T08:02:53;61.23;;;25.03;;
51499;SDS011;39101;53.478;6.158;2022-12-18T08:05:19;57.23;;;24.40;;
51499;SDS011;39101;53.478;6.158;2022-12-18T08:07:46;59.33;;;26.43;;
51499;SDS011;39101;53.478;6.158;2022-12-18T08:10:11;58.10;;;23.10;;
51499;SDS011;39101;53.478;6.158;2022-12-18T08:12:37;53.93;;;22.77;;
51499;SDS011;39101;53.478;6.158;2022-12-18T08:15:03;56.27;;;28.20;;
51499;SDS011;39101;53.478;6.158;2022-12-18T08:17:29;51.87;;;22.93;;
51499;SDS011;39101;53.478;6.158;2022-12-18T08:19:55;52.87;;;22.93;;
51499;SDS011;39101;53.478;6.158;2022-12-18T08:22:20;51.67;;;22.57;;
51499;SDS011;39101;53.478;6.158;2022-12-18T08:24:46;56.07;;;22.93;;
51499;SDS011;39101;53.478;6.158;2022-12-18T08:27:12;54.37;;;25.53;;
51499;SDS011;39101;53.478;6.158;2022-12-18T08:29:37;51.83;;;24.23;;
51499;SDS011;39101;53.478;6.158;2022-12-18T08:32:03;59.00;;;24.10;;
51499;SDS011;39101;53.478;6.158;2022-12-18T08:34:29;50.20;;;22.67;;
51499;SDS011;39101;53.478;6.158;2022-12-18T08:36:55;56.33;;;23.37;;
51499;SDS011;39101;53.478;6.158;2022-12-18T08:39:20;54.50;;;24.40;;
51499;SDS011;39101;53.478;6.158;2022-12-18T08:41:46;54.33;;;24.13;;
51499;SDS011;39101;53.478;6.158;2022-12-18T08:44:31;46.63;;;22.80;;
51499;SDS011;39101;53.478;6.158;2022-12-18T08:47:04;52.60;;;23.30;;
51499;SDS011;39101;53.478;6.158;2022-12-18T08:49:30;49.90;;;23.60;;
51499;SDS011;39101;53.478;6.158;2022-12-18T08:51:57;54.37;;;24.37;;
51499;SDS011;39101;53.478;6.158;2022-12-18T08:54:22;49.73;;;22.53;;
51499;SDS011;39101;53.478;6.158;2022-12-18T08:56:49;50.53;;;22.10;;
51499;SDS011;39101;53.478;6.158;2022-12-18T08:59:18;52.70;;;22.93;;
51499;SDS011;39101;53.478;6.158;2022-12-18T09:01:45;54.97;;;25.33;;
51499;SDS011;39101;53.478;6.158;2022-12-18T09:04:11;53.67;;;23.53;;
51499;SDS011;39101;53.478;6.158;2022-12-18T09:06:37;50.50;;;22.63;;
51499;SDS011;39101;53.478;6.158;2022-12-18T09:09:03;46.13;;;22.20;;
51499;SDS011;39101;53.478;6.158;2022-12-18T09:11:29;47.17;;;22.73;;
51499;SDS011;39101;53.478;6.158;2022-12-18T09:13:57;47.57;;;22.17;;
51499;SDS011;39101;53.478;6.158;2022-12-18T09:16:24;46.80;;;21.47;;
51499;SDS011;39101;53.478;6.158;2022-12-18T09:18:52;48.40;;;21.97;;
51499;SDS011;39101;53.478;6.158;2022-12-18T09:21:24;43.97;;;21.53;;
51499;SDS011;39101;53.478;6.158;2022-12-18T09:23:53;43.10;;;21.53;;
51499;SDS011;39101;53.478;6.158;2022-12-18T09:26:20;47.93;;;21.30;;
51499;SDS011;39101;53.478;6.158;2022-12-18T09:28:46;49.23;;;22.03;;
51499;SDS011;39101;53.478;6.158;2022-12-18T09:31:12;45.77;;;21.57;;
51499;SDS011;39101;53.478;6.158;2022-12-18T09:33:38;42.80;;;20.20;;
51499;SDS011;39101;53.478;6.158;2022-12-18T09:36:04;44.70;;;20.03;;
51499;SDS011;39101;53.478;6.158;2022-12-18T09:38:31;45.87;;;21.57;;
51499;SDS011;39101;53.478;6.158;2022-12-18T09:40:59;38.63;;;19.83;;
51499;SDS011;39101;53.478;6.158;2022-12-18T09:43:31;43.03;;;21.27;;
51499;SDS011;39101;53.478;6.158;2022-12-18T09:46:37;41.87;;;20.10;;
51499;SDS011;39101;53.478;6.158;2022-12-18T09:49:06;43.23;;;20.23;;
51499;SDS011;39101;53.478;6.158;2022-12-18T09:51:54;43.63;;;20.60;;
51499;SDS011;39101;53.478;6.158;2022-12-18T09:54:40;34.90;;;19.38;;
51499;SDS011;39101;53.478;6.158;2022-12-18T09:57:12;40.40;;;19.97;;
51499;SDS011;39101;53.478;6.158;2022-12-18T09:59:40;42.30;;;20.63;;
51499;SDS011;39101;53.478;6.158;2022-12-18T10:02:16;36.37;;;19.03;;
51499;SDS011;39101;53.478;6.158;2022-12-18T10:04:45;39.30;;;20.10;;
51499;SDS011;39101;53.478;6.158;2022-12-18T10:07:25;36.27;;;19.57;;
51499;SDS011;39101;53.478;6.158;2022-12-18T10:12:43;40.33;;;19.77;;
51499;SDS011;39101;53.478;6.158;2022-12-18T10:15:23;31.47;;;18.17;;
51499;SDS011;39101;53.478;6.158;2022-12-18T10:18:01;34.03;;;18.53;;
51499;SDS011;39101;53.478;6.158;2022-12-18T10:20:57;36.67;;;18.80;;
51499;SDS011;39101;53.478;6.158;2022-12-18T10:23:38;37.47;;;19.05;;
51499;SDS011;39101;53.478;6.158;2022-12-18T10:26:23;35.23;;;18.47;;
51499;SDS011;39101;53.478;6.158;2022-12-18T10:28:49;36.00;;;18.87;;
51499;SDS011;39101;53.478;6.158;2022-12-18T10:31:20;34.53;;;17.60;;
51499;SDS011;39101;53.478;6.158;2022-12-18T10:33:48;34.25;;;18.58;;
51499;SDS011;39101;53.478;6.158;2022-12-18T10:36:14;34.70;;;18.63;;
51499;SDS011;39101;53.478;6.158;2022-12-18T10:38:40;33.53;;;18.20;;
51499;SDS011;39101;53.478;6.158;2022-12-18T10:41:08;29.63;;;15.87;;
51499;SDS011;39101;53.478;6.158;2022-12-18T10:44:10;29.07;;;15.77;;
51499;SDS011;39101;53.478;6.158;2022-12-18T10:46:46;34.63;;;18.37;;
51499;SDS011;39101;53.478;6.158;2022-12-18T10:49:32;30.03;;;17.10;;
51499;SDS011;39101;53.478;6.158;2022-12-18T10:52:07;32.63;;;17.83;;
51499;SDS011;39101;53.478;6.158;2022-12-18T10:54:45;35.65;;;17.35;;
51499;SDS011;39101;53.478;6.158;2022-12-18T10:59:55;29.87;;;16.73;;
51499;SDS011;39101;53.478;6.158;2022-12-18T11:02:26;29.87;;;16.63;;
51499;SDS011;39101;53.478;6.158;2022-12-18T11:04:58;29.93;;;17.23;;
51499;SDS011;39101;53.478;6.158;2022-12-18T11:07:24;29.80;;;15.57;;
51499;SDS011;39101;53.478;6.158;2022-12-18T11:09:59;27.27;;;14.90;;
51499;SDS011;39101;53.478;6.158;2022-12-18T11:12:26;31.97;;;15.37;;
51499;SDS011;39101;53.478;6.158;2022-12-18T11:14:54;26.03;;;14.80;;
51499;SDS011;39101;53.478;6.158;2022-12-18T11:19:58;23.77;;;13.07;;
51499;SDS011;39101;53.478;6.158;2022-12-18T11:22:33;26.83;;;14.20;;
51499;SDS011;39101;53.478;6.158;2022-12-18T11:25:07;21.03;;;12.37;;
51499;SDS011;39101;53.478;6.158;2022-12-18T11:27:47;21.57;;;12.33;;
51499;SDS011;39101;53.478;6.158;2022-12-18T11:30:31;24.17;;;13.47;;
51499;SDS011;39101;53.478;6.158;2022-12-18T11:33:00;22.30;;;13.23;;
51499;SDS011;39101;53.478;6.158;2022-12-18T11:35:53;23.43;;;13.70;;
51499;SDS011;39101;53.478;6.158;2022-12-18T11:38:30;22.00;;;12.83;;
51499;SDS011;39101;53.478;6.158;2022-12-18T11:43:53;23.60;;;13.20;;
51499;SDS011;39101;53.478;6.158;2022-12-18T11:46:29;24.23;;;13.40;;
51499;SDS011;39101;53.478;6.158;2022-12-18T11:49:13;23.83;;;13.60;;
51499;SDS011;39101;53.478;6.158;2022-12-18T11:51:48;25.43;;;14.93;;
51499;SDS011;39101;53.478;6.158;2022-12-18T11:54:37;22.50;;;12.80;;
51499;SDS011;39101;53.478;6.158;2022-12-18T11:57:25;21.77;;;12.37;;
51499;SDS011;39101;53.478;6.158;2022-12-18T12:05:08;20.27;;;12.07;;
51499;SDS011;39101;53.478;6.158;2022-12-18T12:07:48;24.13;;;12.47;;
51499;SDS011;39101;53.478;6.158;2022-12-18T12:10:36;24.20;;;12.07;;
51499;SDS011;39101;53.478;6.158;2022-12-18T12:15:47;21.13;;;11.30;;
51499;SDS011;39101;53.478;6.158;2022-12-18T12:24:23;21.37;;;12.33;;
51499;SDS011;39101;53.478;6.158;2022-12-18T12:27:07;18.70;;;10.20;;
51499;SDS011;39101;53.478;6.158;2022-12-18T12:40:06;16.27;;;9.27;;
51499;SDS011;39101;53.478;6.158;2022-12-18T12:42:41;17.13;;;8.90;;
51499;SDS011;39101;53.478;6.158;2022-12-18T12:48:21;17.40;;;9.33;;
51499;SDS011;39101;53.478;6.158;2022-12-18T12:50:50;16.90;;;8.60;;
51499;SDS011;39101;53.478;6.158;2022-12-18T12:53:21;17.57;;;9.77;;
51499;SDS011;39101;53.478;6.158;2022-12-18T12:55:51;17.27;;;10.13;;
51499;SDS011;39101;53.478;6.158;2022-12-18T12:58:31;18.20;;;9.07;;
51499;SDS011;39101;53.478;6.158;2022-12-18T13:06:12;16.03;;;9.43;;
51499;SDS011;39101;53.478;6.158;2022-12-18T13:09:00;13.60;;;8.47;;
51499;SDS011;39101;53.478;6.158;2022-12-18T13:11:31;15.07;;;8.80;;
51499;SDS011;39101;53.478;6.158;2022-12-18T13:14:20;16.93;;;9.00;;
51499;SDS011;39101;53.478;6.158;2022-12-18T13:16:48;13.03;;;7.67;;
51499;SDS011;39101;53.478;6.158;2022-12-18T13:19:23;13.33;;;7.97;;
51499;SDS011;39101;53.478;6.158;2022-12-18T13:21:55;14.33;;;8.17;;
51499;SDS011;39101;53.478;6.158;2022-12-18T13:24:25;13.80;;;8.25;;
51499;SDS011;39101;53.478;6.158;2022-12-18T13:26:55;15.97;;;8.17;;
51499;SDS011;39101;53.478;6.158;2022-12-18T13:32:23;14.37;;;7.07;;
51499;SDS011;39101;53.478;6.158;2022-12-18T13:37:41;12.43;;;7.47;;
51499;SDS011;39101;53.478;6.158;2022-12-18T13:40:55;13.60;;;7.73;;
51499;SDS011;39101;53.478;6.158;2022-12-18T13:43:00;13.17;;;8.00;;
51499;SDS011;39101;53.478;6.158;2022-12-18T13:45:39;15.90;;;7.80;;
51499;SDS011;39101;53.478;6.158;2022-12-18T13:48:17;15.10;;;7.80;;
51499;SDS011;39101;53.478;6.158;2022-12-18T13:50:49;14.67;;;7.60;;
51499;SDS011;39101;53.478;6.158;2022-12-18T13:53:21;14.07;;;7.93;;
51499;SDS011;39101;53.478;6.158;2022-12-18T13:55:51;16.00;;;8.77;;
51499;SDS011;39101;53.478;6.158;2022-12-18T13:58:16;13.07;;;7.57;;
51499;SDS011;39101;53.478;6.158;2022-12-18T14:00:42;15.40;;;9.00;;
51499;SDS011;39101;53.478;6.158;2022-12-18T14:03:22;17.33;;;8.43;;
51499;SDS011;39101;53.478;6.158;2022-12-18T14:06:01;15.53;;;7.60;;
51499;SDS011;39101;53.478;6.158;2022-12-18T14:08:34;15.20;;;8.10;;
51499;SDS011;39101;53.478;6.158;2022-12-18T14:11:03;12.60;;;6.77;;
51499;SDS011;39101;53.478;6.158;2022-12-18T14:13:32;13.10;;;7.40;;
51499;SDS011;39101;53.478;6.158;2022-12-18T14:16:03;11.87;;;6.70;;
51499;SDS011;39101;53.478;6.158;2022-12-18T14:18:48;12.97;;;6.93;;
51499;SDS011;39101;53.478;6.158;2022-12-18T14:21:25;12.67;;;6.90;;
51499;SDS011;39101;53.478;6.158;2022-12-18T14:24:03;13.57;;;6.57;;
51499;SDS011;39101;53.478;6.158;2022-12-18T14:26:40;14.50;;;7.30;;
51499;SDS011;39101;53.478;6.158;2022-12-18T14:32:12;13.70;;;6.70;;
51499;SDS011;39101;53.478;6.158;2022-12-18T14:34:46;11.63;;;5.93;;
51499;SDS011;39101;53.478;6.158;2022-12-18T14:37:17;12.73;;;5.83;;
51499;SDS011;39101;53.478;6.158;2022-12-18T14:39:55;11.57;;;7.30;;
51499;SDS011;39101;53.478;6.158;2022-12-18T14:42:23;11.53;;;6.07;;
51499;SDS011;39101;53.478;6.158;2022-12-18T14:45:18;10.98;;;6.18;;
51499;SDS011;39101;53.478;6.158;2022-12-18T14:47:57;12.63;;;6.97;;
51499;SDS011;39101;53.478;6.158;2022-12-18T14:50:32;11.97;;;6.20;;
51499;SDS011;39101;53.478;6.158;2022-12-18T14:52:58;13.53;;;6.80;;
51499;SDS011;39101;53.478;6.158;2022-12-18T14:55:23;13.17;;;7.80;;
51499;SDS011;39101;53.478;6.158;2022-12-18T14:57:50;14.63;;;6.33;;
51499;SDS011;39101;53.478;6.158;2022-12-18T15:00:19;15.00;;;7.97;;
51499;SDS011;39101;53.478;6.158;2022-12-18T15:02:48;11.77;;;6.57;;
51499;SDS011;39101;53.478;6.158;2022-12-18T15:05:18;12.77;;;7.00;;
51499;SDS011;39101;53.478;6.158;2022-12-18T15:07:45;14.43;;;7.87;;
51499;SDS011;39101;53.478;6.158;2022-12-18T15:10:15;13.50;;;6.75;;
51499;SDS011;39101;53.478;6.158;2022-12-18T15:12:42;15.10;;;7.23;;
51499;SDS011;39101;53.478;6.158;2022-12-18T15:20:38;11.90;;;7.50;;
51499;SDS011;39101;53.478;6.158;2022-12-18T15:23:26;12.93;;;6.90;;
51499;SDS011;39101;53.478;6.158;2022-12-18T15:26:08;13.70;;;7.70;;
51499;SDS011;39101;53.478;6.158;2022-12-18T15:31:04;13.67;;;7.40;;
51499;SDS011;39101;53.478;6.158;2022-12-18T15:33:34;17.90;;;8.33;;
51499;SDS011;39101;53.478;6.158;2022-12-18T15:36:07;13.50;;;7.50;;
51499;SDS011;39101;53.478;6.158;2022-12-18T15:38:34;14.83;;;8.30;;
51499;SDS011;39101;53.478;6.158;2022-12-18T15:41:01;12.83;;;8.50;;
51499;SDS011;39101;53.478;6.158;2022-12-18T15:43:27;13.07;;;7.27;;
51499;SDS011;39101;53.478;6.158;2022-12-18T15:46:06;20.93;;;9.00;;
51499;SDS011;39101;53.478;6.158;2022-12-18T15:48:47;13.35;;;8.32;;
51499;SDS011;39101;53.478;6.158;2022-12-18T15:51:21;14.77;;;7.53;;
51499;SDS011;39101;53.478;6.158;2022-12-18T15:53:50;14.73;;;8.33;;
51499;SDS011;39101;53.478;6.158;2022-12-18T15:56:19;16.53;;;9.37;;
51499;SDS011;39101;53.478;6.158;2022-12-18T15:59:16;14.30;;;8.23;;
51499;SDS011;39101;53.478;6.158;2022-12-18T16:01:44;13.65;;;7.50;;
51499;SDS011;39101;53.478;6.158;2022-12-18T16:04:12;16.17;;;8.70;;
51499;SDS011;39101;53.478;6.158;2022-12-18T16:06:40;15.90;;;9.40;;
51499;SDS011;39101;53.478;6.158;2022-12-18T16:09:06;14.83;;;9.03;;
51499;SDS011;39101;53.478;6.158;2022-12-18T16:11:33;14.57;;;8.50;;
51499;SDS011;39101;53.478;6.158;2022-12-18T16:16:48;16.33;;;9.68;;
51499;SDS011;39101;53.478;6.158;2022-12-18T16:19:17;16.30;;;9.97;;